Union Ranger — SYMB — position and weather

sailwx.info

Track history (hours):
 
Tides and Currents Weather Stations Pressure Air Temp Water Temp Dewpoint Dewpoint Depression Visibility Wind Speed Wind Dir Waves Ship Positions

Union Ranger

Last reported at 2014-Oct-06 07:27 UTC. Time now 2014-Nov-21 02:33 UTC.
Position N 35°60' W 005°28'.
Warning: this ship's position is 45 days out of date.

Length 185 m; draft 9.3 m.

Type: Ship. MMSI: 240070000.

Date/timePositionNaut miles runAvg speedWind from/ knotsBaromVisibWave heightAir tempDewpointWater temp
2014-Oct-06 07:27N 35°60' W 005°28'11 1.4
2014-Oct-05 23:05N 36°05' W 005°16'21710.6
2014-Oct-05 02:31N 37°15' W 000°59'1212.1
2014-Oct-05 01:32N 37°24' W 000°48'1212.2
2014-Oct-05 00:33N 37°32' W 000°37'1211.9
2014-Oct-04 23:33N 37°41' W 000°29'1211.7
2014-Oct-04 22:33N 37°52' W 000°22'1311.6
2014-Oct-04 21:28N 38°04' W 000°20'1310.5
2014-Oct-04 20:12N 38°17' W 000°24'  
2014-Oct-02 04:33N 37°35' E 002°26'1312.5
2014-Oct-02 03:33N 37°31' E 002°42'1212.4
2014-Oct-02 02:33N 37°28' E 002°56'  
Track history (hours):
 
Tides and Currents Weather Stations Pressure Air Temp Water Temp Dewpoint Dewpoint Depression Visibility Wind Speed Wind Dir Waves Ship Positions

Union Ranger

Last reported at 2014-Oct-06 07:27 UTC. Time now 2014-Nov-21 02:33 UTC.
Position N 35°60' W 005°28'.
Warning: this ship's position is 45 days out of date.

Length 185 m; draft 9.3 m.

Type: Ship. MMSI: 240070000.

Date/timePositionNaut miles runAvg speedWind from/ knotsBaromVisibWave heightAir tempDewpointWater temp
2014-Oct-06 07:27N 35°60' W 005°28'11 1.4
2014-Oct-05 23:05N 36°05' W 005°16'21710.6
2014-Oct-05 02:31N 37°15' W 000°59'1212.1
2014-Oct-05 01:32N 37°24' W 000°48'1212.2
2014-Oct-05 00:33N 37°32' W 000°37'1211.9
2014-Oct-04 23:33N 37°41' W 000°29'1211.7
2014-Oct-04 22:33N 37°52' W 000°22'1311.6
2014-Oct-04 21:28N 38°04' W 000°20'1310.5
2014-Oct-04 20:12N 38°17' W 000°24'  
2014-Oct-02 04:33N 37°35' E 002°26'1312.5
2014-Oct-02 03:33N 37°31' E 002°42'1212.4
2014-Oct-02 02:33N 37°28' E 002°56'  

Dump ship's entire track history